Latest Weather Observations for Yanco

IDN60801

Issued at 2:32 pm EST Monday 30 May 2016 (issued every 30 minutes, with the page automatically refreshed every 10 minutes)

About weather observations | Map of weather stations | Latest weather observations for NSW | Other Formats
Station Details ID: 074037 Name: YANCO AGRICULTURAL INSTITUTE Lat: -34.62 Lon: 146.43 Height: 164.0 m
Data from the previous 72 hours. | See also: Recent months at Yanco
Date/Time
EST
Temp
°C
App
Temp
°C
Dew
Point
Rel
Hum
%
Delta-T
°C
Wind Press
QNH
hPa
Press
MSL
hPa
Rain
since 9 am
mm
Dir
 
Spd
km/h
Gust
km/h
Spd
kts
Gust
kts
30/02:30pm 13.0 10.4 3.4 52 4.3 E 6 11 3 6 - - 0.0
30/02:00pm 13.4 11.5 2.6 48 4.8 E 2 6 1 3 - - 0.0
30/01:30pm 13.0 10.8 3.1 51 4.4 NNW 4 9 2 5 - - 0.0
30/01:00pm 12.4 9.6 2.0 49 4.5 ENE 6 13 3 7 - - 0.0
30/12:30pm 12.3 10.0 2.5 51 4.3 E 4 7 2 4 - - 0.0
30/12:00pm 12.5 9.7 3.2 53 4.2 NE 7 13 4 7 - - 0.0
30/11:30am 12.2 9.4 2.9 53 4.1 NE 7 13 4 7 - - 0.0
30/11:00am 11.4 8.1 2.4 54 3.9 E 9 13 5 7 - - 0.0
30/10:30am 11.3 8.0 2.3 54 3.9 E 9 15 5 8 - - 0.0
30/10:00am 11.2 8.4 3.0 57 3.6 E 7 11 4 6 - - 0.0
30/09:30am 10.8 8.4 4.5 65 2.9 E 6 7 3 4 - - 0.0
30/09:00am 9.5 7.0 3.5 66 2.6 E 6 7 3 4 - - 0.0
30/08:30am 8.5 5.6 2.7 67 2.5 E 7 9 4 5 - - 0.0
30/08:00am 7.8 5.1 2.7 70 2.2 ENE 6 6 3 3 - - 0.0
30/07:30am 6.5 3.6 1.6 71 2.0 ENE 6 6 3 3 - - 0.0
30/07:00am 6.7 4.1 1.2 68 2.2 ENE 4 6 2 3 - - 0.0
30/06:30am 7.2 4.2 1.1 65 2.5 ESE 6 6 3 3 - - 0.0
30/06:00am 7.3 4.4 1.6 67 2.3 SE 6 7 3 4 - - 0.0
30/05:30am 7.1 4.1 2.0 70 2.1 SE 7 9 4 5 - - 0.0
30/05:00am 7.5 4.5 2.2 69 2.2 SE 7 9 4 5 - - 0.0
30/04:30am 7.6 4.7 2.7 71 2.1 SE 7 9 4 5 - - 0.0
30/04:00am 8.3 6.0 2.5 67 2.5 ESE 4 6 2 3 - - 0.0
30/03:30am 8.6 5.9 2.6 66 2.6 SE 6 7 3 4 - - 0.0
30/03:00am 9.0 6.0 2.3 63 2.8 SSE 7 15 4 8 - - 0.0
30/02:30am 8.1 5.7 4.3 77 1.7 SSW 6 6 3 3 - - 0.0
30/02:00am 8.5 5.7 3.4 70 2.2 S 7 9 4 5 - - 0.0
30/01:30am 8.5 6.4 3.8 72 2.1 SW 4 4 2 2 - - 0.0
30/01:00am 8.4 6.7 3.8 73 2.0 W 2 4 1 2 - - 0.0
30/12:30am 8.3 6.7 4.3 76 1.8 W 2 4 1 2 - - 0.0
30/12:00am 8.4 7.0 3.8 73 2.0 CALM 0 0 0 0 - - 0.0
 
Date/Time
EST
Temp
°C
App
Temp
°C
Dew
Point
Rel
Hum
%
Delta-T
°C
Wind Press
QNH
hPa
Press
MSL
hPa
Rain
since 9 am
mm
Dir
 
Spd
km/h
Gust
km/h
Spd
kts
Gust
kts
29/11:30pm 8.4 7.0 3.7 72 2.0 CALM 0 0 0 0 - - 0.0
29/11:00pm 8.3 7.0 4.3 76 1.8 CALM 0 0 0 0 - - 0.0
29/10:30pm 8.9 7.6 3.9 71 2.2 CALM 0 0 0 0 - - 0.0
29/10:00pm 8.9 7.6 4.1 72 2.1 CALM 0 0 0 0 - - 0.0
29/09:30pm 8.8 7.6 4.4 74 2.0 CALM 0 0 0 0 - - 0.0
29/09:00pm 8.9 6.9 4.5 74 2.0 WSW 4 6 2 3 - - 0.0
29/08:30pm 8.8 7.2 4.6 75 1.9 WSW 2 4 1 2 - - 0.0
29/08:00pm 8.7 7.1 4.7 76 1.8 WSW 2 6 1 3 - - 0.0
29/07:30pm 8.8 7.6 4.4 74 2.0 CALM 0 0 0 0 - - 0.0
29/07:00pm 8.9 6.9 4.3 73 2.0 SW 4 4 2 2 - - 0.0
29/06:30pm 9.0 6.6 4.4 73 2.0 SSW 6 6 3 3 - - 0.0
29/06:00pm 9.6 7.4 5.2 74 2.0 SW 6 6 3 3 - - 0.0
29/05:30pm 10.0 7.5 5.0 71 2.3 SSW 7 11 4 6 - - 0.0
29/05:00pm 10.8 7.9 4.9 67 2.7 SW 9 15 5 8 - - 0.0
29/04:30pm 11.5 9.0 4.9 64 3.0 WSW 7 9 4 5 - - 0.0
29/04:00pm 11.7 9.2 4.9 63 3.1 WSW 7 9 4 5 - - 0.0
29/03:30pm 13.1 10.2 4.5 56 4.0 W 9 13 5 7 - - 0.0
29/03:00pm 12.7 9.0 4.2 56 3.9 SW 13 20 7 11 - - 0.0
29/02:30pm 12.9 9.3 4.8 58 3.8 SW 13 17 7 9 - - 0.0
29/02:00pm 13.9 9.7 5.5 57 4.0 WSW 17 24 9 13 - - 0.0
29/01:30pm 12.6 9.2 5.8 63 3.2 SW 13 17 7 9 - - 0.0
29/01:00pm 12.4 8.1 5.3 62 3.3 SW 17 22 9 12 - - 0.0
29/12:30pm 11.4 7.3 4.2 61 3.3 WSW 15 22 8 12 - - 0.0
29/12:00pm 11.9 8.3 4.9 62 3.2 WSW 13 17 7 9 - - 0.0
29/11:30am 11.4 9.3 5.7 68 2.7 W 6 9 3 5 - - 0.0
29/11:00am 10.1 8.4 6.1 76 1.9 SW 4 7 2 4 - - 0.0
29/10:30am 9.1 7.4 6.0 81 1.4 SSW 4 6 2 3 - - 0.0
29/10:00am 8.0 6.0 6.1 88 0.9 WNW 6 7 3 4 - - 0.0
29/09:30am 6.5 4.9 6.4 99 0.0 NW 4 6 2 3 - - 0.0
29/09:00am 4.6 2.2 4.5 99 0.0 NNW 6 7 3 4 - - 1.0
29/08:30am 4.4 2.0 4.3 99 0.0 NNW 6 6 3 3 - - 1.0
29/08:00am 3.2 1.0 3.1 99 0.0 N 4 6 2 3 - - 1.0
29/07:30am 3.0 0.3 2.7 98 0.1 N 6 6 3 3 - - 1.0
29/07:00am 3.3 0.6 2.9 97 0.2 NNW 6 6 3 3 - - 1.0
29/06:30am 3.6 1.4 3.2 97 0.2 WNW 4 4 2 2 - - 1.0
29/06:00am 4.1 1.9 3.5 96 0.2 WNW 4 6 2 3 - - 1.0
29/05:30am 4.5 2.4 3.9 96 0.3 WNW 4 4 2 2 - - 1.0
29/05:00am 5.0 3.4 4.3 95 0.3 NW 2 4 1 2 - - 1.0
29/04:30am 5.4 3.1 4.7 95 0.3 SW 6 7 3 4 - - 1.0
29/04:00am 5.1 3.4 4.2 94 0.4 WSW 2 6 1 3 - - 1.0
29/03:30am 5.7 3.2 4.8 94 0.4 SW 7 9 4 5 - - 1.0
29/03:00am 5.9 3.4 5.0 94 0.4 SW 7 9 4 5 - - 1.0
29/02:30am 6.1 3.9 5.5 96 0.3 SW 6 7 3 4 - - 1.0
29/02:00am 6.0 4.2 5.4 96 0.3 W 4 7 2 4 - - 1.0
29/01:30am 5.8 3.9 5.1 95 0.3 NW 4 6 2 3 - - 1.0
29/01:00am 6.0 3.8 5.4 96 0.3 NNW 6 6 3 3 - - 1.0
29/12:30am 5.9 4.0 4.9 93 0.4 NNW 4 6 2 3 - - 0.8
29/12:00am 6.7 4.4 5.5 92 0.5 WSW 7 7 4 4 - - 0.8
 
Date/Time
EST
Temp
°C
App
Temp
°C
Dew
Point
Rel
Hum
%
Delta-T
°C
Wind Press
QNH
hPa
Press
MSL
hPa
Rain
since 9 am
mm
Dir
 
Spd
km/h
Gust
km/h
Spd
kts
Gust
kts
28/11:30pm 7.1 4.5 5.9 92 0.5 WSW 9 11 5 6 - - 0.8
28/11:00pm 7.2 4.9 5.8 91 0.6 WSW 7 11 4 6 - - 0.8
28/10:30pm 7.4 5.1 5.9 90 0.7 SW 7 9 4 5 - - 0.8
28/10:00pm 7.7 5.1 6.2 90 0.7 SW 9 13 5 7 - - 0.8
28/09:30pm 8.0 5.1 6.3 89 0.8 SW 11 13 6 7 - - 0.8
28/09:00pm 8.6 6.1 6.4 86 1.0 WSW 9 13 5 7 - - 0.8
28/08:30pm 8.4 5.8 6.2 86 1.0 WSW 9 13 5 7 - - 0.8
28/08:00pm 8.7 6.5 6.2 84 1.2 W 7 9 4 5 - - 0.8
28/07:30pm 8.8 6.7 5.9 82 1.3 WSW 6 7 3 4 - - 0.8
28/07:00pm 8.9 6.8 5.8 81 1.4 WSW 6 9 3 5 - - 0.8
28/06:30pm 9.2 6.6 6.1 81 1.4 WSW 9 13 5 7 - - 0.8
28/06:00pm 9.7 7.1 6.2 79 1.6 WSW 9 15 5 8 - - 0.8
28/05:30pm 11.0 7.7 6.6 74 2.1 WSW 13 17 7 9 - - 0.8
28/05:00pm 11.4 8.5 6.5 72 2.3 WSW 11 17 6 9 - - 0.8
28/04:30pm 12.5 8.9 6.8 68 2.8 WSW 15 20 8 11 - - 0.8
28/04:00pm 12.4 9.0 7.5 72 2.4 WSW 15 20 8 11 - - 0.8
28/03:30pm 12.0 9.2 8.7 80 1.7 SW 13 19 7 10 - - 0.8
28/03:00pm 11.5 9.6 8.9 84 1.3 SSW 9 13 5 7 - - 0.8
28/02:30pm 11.6 8.9 9.0 84 1.3 SSW 13 17 7 9 - - 0.8
28/02:00pm 10.9 8.2 9.0 88 1.0 SSW 13 17 7 9 - - 0.8
28/01:30pm 10.6 7.9 8.9 89 0.8 SW 13 17 7 9 - - 0.8
28/01:00pm 10.1 6.8 9.5 96 0.3 SW 17 22 9 12 - - 0.8
28/12:30pm 10.1 7.6 9.8 98 0.2 W 13 19 7 10 - - 0.6
28/12:00pm 9.8 7.1 8.9 94 0.4 W 13 17 7 9 - - 0.2
28/11:30am 9.7 6.0 8.1 90 0.8 W 17 22 9 12 - - 0.0
28/11:00am 9.8 7.2 7.9 88 0.9 W 11 13 6 7 - - 0.0
28/10:30am 9.6 6.6 7.5 87 1.0 WSW 13 17 7 9 - - 0.0
28/10:00am 9.9 6.7 8.5 91 0.7 W 15 20 8 11 - - 0.0
28/09:30am 9.1 7.1 8.5 96 0.3 W 9 13 5 7 - - 0.0
28/09:00am 8.5 5.9 7.7 95 0.4 W 11 19 6 10 - - 6.4
28/08:30am 8.5 6.3 7.9 96 0.3 WSW 9 13 5 7 - - 6.4
28/08:00am 8.3 6.7 8.0 98 0.1 W 6 7 3 4 - - 6.4
28/07:30am 8.2 6.6 7.9 98 0.1 W 6 7 3 4 - - 6.4
28/07:00am 8.1 5.9 7.8 98 0.1 W 9 13 5 7 - - 6.4
28/06:30am 8.1 5.5 7.8 98 0.1 WNW 11 17 6 9 - - 6.4
28/06:00am 8.3 5.7 7.9 97 0.2 WNW 11 17 6 9 - - 6.2
28/05:30am 8.4 6.8 8.0 97 0.2 WNW 6 9 3 5 - - 6.2
28/05:00am 8.3 6.4 7.5 95 0.4 WNW 7 11 4 6 - - 6.2
28/04:30am 8.3 6.0 7.4 94 0.4 WNW 9 13 5 7 - - 6.2
28/04:00am 8.4 6.1 7.3 93 0.5 W 9 13 5 7 - - 6.2
28/03:30am 8.8 5.5 7.9 94 0.4 W 15 22 8 12 - - 6.2
28/03:00am 9.1 7.1 8.6 97 0.2 WNW 9 13 5 7 - - 6.0
28/02:30am 9.3 6.6 8.8 97 0.2 NW 13 19 7 10 - - 5.2
28/02:00am 9.7 6.7 9.2 97 0.2 NW 15 19 8 10 - - 4.4
28/01:30am 10.2 8.6 10.1 99 0.1 NW 9 11 5 6 - - 3.2
28/01:00am 10.2 8.6 10.1 99 0.1 NNW 9 13 5 7 - - 3.0
28/12:30am 10.3 9.0 9.8 97 0.3 N 7 9 4 5 - - 2.6
28/12:00am 10.6 8.5 9.8 95 0.4 NNW 11 17 6 9 - - 2.4
 
Date/Time
EST
Temp
°C
App
Temp
°C
Dew
Point
Rel
Hum
%
Delta-T
°C
Wind Press
QNH
hPa
Press
MSL
hPa
Rain
since 9 am
mm
Dir
 
Spd
km/h
Gust
km/h
Spd
kts
Gust
kts
27/11:30pm 10.9 8.4 9.7 92 0.6 N 13 22 7 12 - - 2.2
27/11:00pm 11.4 8.9 9.7 89 0.9 NNE 13 19 7 10 - - 0.4
27/10:30pm 10.6 8.1 9.7 94 0.5 E 13 17 7 9 - - 0.4
27/10:00pm 10.5 8.8 9.7 95 0.4 ESE 9 13 5 7 - - 0.4
27/09:30pm 10.7 8.9 9.5 92 0.6 NE 9 13 5 7 - - 0.0
27/09:00pm 10.8 9.4 9.4 91 0.7 NE 7 9 4 5 - - 0.0
27/08:30pm 11.1 8.9 9.5 90 0.8 NNE 11 15 6 8 - - 0.0
27/08:00pm 11.5 9.6 9.2 86 1.2 N 9 13 5 7 - - 0.0
27/07:30pm 12.0 10.6 8.8 81 1.6 NE 6 6 3 3 - - 0.0
27/07:00pm 12.1 10.7 8.8 80 1.7 NNE 6 6 3 3 - - 0.0
27/06:30pm 12.2 11.2 8.9 80 1.7 N 4 4 2 2 - - 0.0
27/06:00pm 12.2 11.5 8.7 79 1.8 NW 2 6 1 3 - - 0.0
27/05:30pm 12.5 11.6 7.8 73 2.3 W 2 2 1 1 - - 0.0
27/05:00pm 12.8 11.1 7.7 71 2.5 W 6 9 3 5 - - 0.0
27/04:30pm 13.1 10.9 7.8 70 2.6 WSW 9 13 5 7 - - 0.0
27/04:00pm 14.2 11.5 7.3 63 3.4 WSW 11 19 6 10 - - 0.0
27/03:30pm 14.4 11.7 7.5 63 3.4 WSW 11 24 6 13 - - 0.0
27/03:00pm 13.3 9.4 7.1 66 3.0 WSW 17 24 9 13 - - 0.0

Other Formats:

Comma delimited format used in spreadsheet applications
http://www.bom.gov.au/fwo/IDN60801/IDN60801.95705.axf

JavaScript Object Notation format (JSON) in row-major order
http://www.bom.gov.au/fwo/IDN60801/IDN60801.95705.json